createdAt,value
2023-03-27T00:03:09.442Z,21.8
2023-03-27T00:13:08.096Z,21.4
2023-03-27T00:23:08.942Z,21.4
2023-03-27T00:33:08.675Z,21.5
2023-03-27T00:43:08.700Z,21.4
2023-03-27T00:53:07.969Z,21.5
2023-03-27T01:03:07.521Z,21.4
2023-03-27T01:13:06.992Z,21.2
2023-03-27T01:23:07.051Z,22.6
2023-03-27T01:33:07.038Z,21.3
2023-03-27T01:43:06.701Z,21.1
2023-03-27T01:53:06.054Z,21.2
2023-03-27T02:03:05.855Z,21.2
2023-03-27T02:13:05.634Z,21.3
2023-03-27T02:23:05.594Z,21.5
2023-03-27T02:33:05.277Z,21.2
2023-03-27T02:43:05.293Z,20.8
2023-03-27T02:53:04.818Z,21.3
2023-03-27T03:03:08.186Z,20.9
2023-03-27T03:13:07.685Z,20.9
2023-03-27T03:23:07.113Z,20.8
2023-03-27T03:33:06.881Z,21.2
2023-03-27T03:43:06.320Z,20.8
2023-03-27T03:53:06.178Z,20.9
2023-03-27T04:03:06.638Z,21
2023-03-27T04:13:07.326Z,20.9
2023-03-27T04:23:08.327Z,22.2
2023-03-27T04:33:08.342Z,21.1
2023-03-27T04:43:10.482Z,21.1
2023-03-27T04:53:16.696Z,26
2023-03-27T05:03:30.595Z,26.9
2023-03-27T05:13:46.608Z,29.9
2023-03-27T05:23:55.780Z,26.7
2023-03-27T05:34:00.508Z,23.6
2023-03-27T05:44:07.672Z,23.4
2023-03-27T05:54:17.968Z,26.8
2023-03-27T06:04:26.434Z,25.2
2023-03-27T06:14:35.763Z,26.6
2023-03-27T06:24:49.868Z,25.7
2023-03-27T06:34:53.228Z,23.3
2023-03-27T06:44:58.692Z,25.8
2023-03-27T06:55:15.228Z,28.3
2023-03-27T07:05:31.423Z,29.2
2023-03-27T07:15:49.259Z,28.2
2023-03-27T07:26:09.291Z,29.2
2023-03-27T07:36:20.027Z,28.6
2023-03-27T07:46:34.190Z,28.7
2023-03-27T07:56:43.244Z,27.6
2023-03-27T08:06:52.355Z,24.2
2023-03-27T08:17:14.954Z,27.9
2023-03-27T08:27:19.591Z,28.4
2023-03-27T08:37:33.517Z,29.5
2023-03-27T08:47:39.254Z,23.9
2023-03-27T08:57:42.716Z,28.3
2023-03-27T09:03:12.075Z,29.1
2023-03-27T09:13:29.730Z,28.6
2023-03-27T09:23:43.491Z,26.3
2023-03-27T09:33:49.972Z,28.5
2023-03-27T09:43:53.781Z,25.3
2023-03-27T09:54:00.170Z,25.8
2023-03-27T10:04:03.612Z,25.6
2023-03-27T10:14:06.231Z,25
2023-03-27T10:24:07.377Z,25.2
2023-03-27T10:34:12.908Z,27.9
2023-03-27T10:44:24.924Z,24
2023-03-27T10:54:38.049Z,27.3
2023-03-27T11:04:52.834Z,29.2
2023-03-27T11:15:05.494Z,26.9
2023-03-27T11:25:12.074Z,24.1
2023-03-27T11:35:12.415Z,24.2
2023-03-27T11:45:13.752Z,23.5
2023-03-27T11:55:13.925Z,25
2023-03-27T12:05:13.657Z,23.3
2023-03-27T12:15:13.854Z,23
2023-03-27T12:25:13.500Z,22.9
2023-03-27T12:35:13.510Z,22.9
2023-03-27T12:45:13.278Z,23.9
2023-03-27T12:55:12.222Z,22.4
2023-03-27T13:05:20.344Z,22.4
2023-03-27T13:15:12.839Z,23.8
2023-03-27T13:25:12.031Z,22.3
2023-03-27T13:35:11.509Z,22.2
2023-03-27T13:45:11.058Z,22.3
2023-03-27T13:55:11.270Z,22.1
2023-03-27T14:05:10.712Z,22.3
2023-03-27T14:15:10.662Z,22.1
2023-03-27T14:25:09.735Z,22.3
2023-03-27T14:35:08.040Z,21.9
2023-03-27T14:45:08.546Z,21.9
2023-03-27T14:55:09.097Z,21.9
2023-03-27T15:03:08.563Z,22.1
2023-03-27T15:13:08.371Z,22.3
2023-03-27T15:23:08.086Z,21.8
2023-03-27T15:33:08.112Z,21.9
2023-03-27T15:43:07.970Z,22.9
2023-03-27T15:53:08.245Z,21.8
2023-03-27T16:03:08.272Z,21.6
2023-03-27T16:13:09.548Z,21.6
2023-03-27T16:23:10.546Z,21.4
2023-03-27T16:33:12.915Z,21.6
2023-03-27T16:43:12.677Z,21.4
2023-03-27T16:53:13.483Z,21.3
2023-03-27T17:03:13.913Z,21.3
2023-03-27T17:13:13.882Z,21
2023-03-27T17:23:13.606Z,21.4
2023-03-27T17:33:13.358Z,21.3
2023-03-27T17:43:12.991Z,21.2
2023-03-27T17:53:12.642Z,21
2023-03-27T18:03:12.718Z,21.1
2023-03-27T18:13:12.918Z,23
2023-03-27T18:23:13.197Z,21.3
2023-03-27T18:33:13.403Z,21.4
2023-03-27T18:43:13.722Z,21.3
2023-03-27T18:53:12.662Z,21.3
2023-03-27T19:03:12.669Z,21.2
2023-03-27T19:13:18.649Z,22.3
2023-03-27T19:23:13.001Z,21.2
2023-03-27T19:33:13.216Z,20.9
2023-03-27T19:43:12.768Z,21
2023-03-27T19:53:11.596Z,20.8
2023-03-27T20:03:12.591Z,21.1
2023-03-27T20:13:12.989Z,22.2
2023-03-27T20:23:11.744Z,21.1
2023-03-27T20:33:11.735Z,20.8
2023-03-27T20:43:11.098Z,21
2023-03-27T20:53:10.965Z,22.7
2023-03-27T21:03:08.615Z,21
2023-03-27T21:13:10.041Z,21.8
2023-03-27T21:23:09.741Z,21.1
2023-03-27T21:33:09.325Z,20.9
2023-03-27T21:43:08.563Z,20.8
2023-03-27T21:53:08.582Z,20.9
2023-03-27T22:03:09.218Z,20.9
2023-03-27T22:13:10.487Z,20.9
2023-03-27T22:23:11.393Z,22.1
2023-03-27T22:33:12.767Z,20.6
2023-03-27T22:43:23.012Z,20.8
2023-03-27T22:53:14.674Z,20.9
2023-03-27T23:03:14.895Z,20.8
2023-03-27T23:13:15.049Z,21.1
2023-03-27T23:23:14.832Z,21.1
2023-03-27T23:33:15.391Z,20.8
2023-03-27T23:43:16.243Z,22.5
2023-03-27T23:53:16.873Z,22.1
